Time;durP1;ratioP1;P1;durP2;ratioP2;P2;SDS_P1;SDS_P2;PMS_P1;PMS_P2;Temp;Humidity;BMP_temperature;BMP_pressure;BME280_temperature;BME280_humidity;BME280_pressure;Samples;Min_cycle;Max_cycle;Signal;HPM_P1;HPM_P2
2023/05/12 00:01:54;;;;;;;0.10;0.10;;;11.90;99.90;;;;;;5011949;28;20355;-66
2023/05/12 00:04:19;;;;;;;0.10;0.10;;;12.00;99.90;;;;;;4988574;28;20065;-66
2023/05/12 00:06:45;;;;;;;0.13;0.13;;;11.80;99.90;;;;;;5007509;28;20441;-65
2023/05/12 00:09:10;;;;;;;0.15;0.15;;;11.80;99.90;;;;;;5005769;28;20072;-65
2023/05/12 00:11:37;;;;;;;0.22;0.22;;;11.90;99.90;;;;;;5011802;28;20052;-65
2023/05/12 00:14:02;;;;;;;0.15;0.15;;;11.90;99.90;;;;;;5012645;28;20103;-65
2023/05/12 00:16:28;;;;;;;0.50;0.50;;;11.80;99.90;;;;;;5002110;28;20050;-65
2023/05/12 00:18:54;;;;;;;0.38;0.38;;;11.90;99.90;;;;;;5005399;28;20119;-65
2023/05/12 00:21:19;;;;;;;0.22;0.22;;;11.90;99.90;;;;;;5002885;28;20045;-66
2023/05/12 00:23:45;;;;;;;0.00;0.00;;;11.90;99.90;;;;;;5020374;28;20037;-65
2023/05/12 00:26:10;;;;;;;0.00;0.00;;;11.90;99.90;;;;;;5010373;28;20124;-65
2023/05/12 00:28:36;;;;;;;0.00;0.00;;;11.90;99.90;;;;;;4989421;28;20042;-65
2023/05/12 00:31:02;;;;;;;0.10;0.10;;;11.90;99.90;;;;;;4999395;28;20084;-65
2023/05/12 00:33:29;;;;;;;0.40;0.40;;;11.90;99.90;;;;;;4996161;28;20056;-65
2023/05/12 00:35:54;;;;;;;0.10;0.10;;;11.90;99.90;;;;;;4999321;28;20050;-65
2023/05/12 00:38:20;;;;;;;0.10;0.10;;;11.90;99.90;;;;;;5012463;28;20042;-65
2023/05/12 00:40:46;;;;;;;0.10;0.10;;;11.80;99.90;;;;;;4977459;28;20246;-65
2023/05/12 00:43:11;;;;;;;0.00;0.00;;;11.90;99.90;;;;;;5002174;28;20493;-65
2023/05/12 00:45:37;;;;;;;0.20;0.20;;;11.90;99.90;;;;;;5005177;28;20042;-65
2023/05/12 00:48:05;;;;;;;0.00;0.00;;;11.90;99.90;;;;;;5014085;28;20715;-65
2023/05/12 00:50:31;;;;;;;0.00;0.00;;;11.90;99.90;;;;;;5007061;28;20402;-65
2023/05/12 00:52:59;;;;;;;0.00;0.00;;;11.90;99.90;;;;;;4982196;28;20046;-65
2023/05/12 00:55:26;;;;;;;0.55;0.50;;;11.90;99.90;;;;;;5008791;28;20052;-65
2023/05/12 00:57:52;;;;;;;0.20;0.20;;;11.90;99.90;;;;;;5008895;28;20092;-66
2023/05/12 01:00:18;;;;;;;0.47;0.47;;;11.90;99.90;;;;;;5003363;28;20133;-65
2023/05/12 01:02:44;;;;;;;1.55;0.50;;;11.90;99.90;;;;;;4995519;28;20125;-65
2023/05/12 01:05:10;;;;;;;0.45;0.45;;;11.90;99.90;;;;;;5001223;28;20486;-65
2023/05/12 01:07:37;;;;;;;0.20;0.20;;;12.00;99.90;;;;;;5005432;28;20038;-65
2023/05/12 01:10:04;;;;;;;0.00;0.00;;;11.90;99.90;;;;;;5010836;28;20068;-66
2023/05/12 01:12:31;;;;;;;0.00;0.00;;;11.90;99.90;;;;;;4996153;28;20489;-66
2023/05/12 01:14:57;;;;;;;0.10;0.10;;;11.90;99.90;;;;;;4982183;28;20050;-66
2023/05/12 01:17:34;;;;;;;0.13;0.13;;;11.90;99.90;;;;;;5018502;28;20052;-66
2023/05/12 01:20:03;;;;;;;6.13;0.63;;;11.90;99.90;;;;;;4999308;28;20400;-66
2023/05/12 01:22:30;;;;;;;0.00;0.00;;;11.90;99.90;;;;;;5005177;28;20042;-66
2023/05/12 01:25:06;;;;;;;0.20;0.20;;;11.90;99.90;;;;;;4983499;28;20061;-66
2023/05/12 01:27:32;;;;;;;0.00;0.00;;;11.90;99.90;;;;;;4987634;28;20078;-65
2023/05/12 01:30:00;;;;;;;0.10;0.10;;;11.90;99.90;;;;;;5011916;28;20049;-65
2023/05/12 01:32:26;;;;;;;0.15;0.15;;;11.90;99.90;;;;;;4978963;28;20083;-66
2023/05/12 01:34:52;;;;;;;0.85;0.85;;;11.80;99.90;;;;;;5002948;28;20532;-66
2023/05/12 01:37:18;;;;;;;0.10;0.10;;;11.90;99.90;;;;;;5005755;28;20104;-66
2023/05/12 01:39:44;;;;;;;0.47;0.47;;;11.80;99.90;;;;;;5010183;28;20417;-66
2023/05/12 01:42:09;;;;;;;0.80;0.57;;;11.90;99.90;;;;;;5012942;28;20440;-66
2023/05/12 01:44:35;;;;;;;0.22;0.22;;;11.90;99.90;;;;;;5003307;28;20034;-66
2023/05/12 01:47:01;;;;;;;0.43;0.43;;;11.90;99.90;;;;;;5003418;28;20041;-66
2023/05/12 01:49:26;;;;;;;0.10;0.10;;;11.90;99.90;;;;;;5009861;28;20046;-66
2023/05/12 01:51:52;;;;;;;0.17;0.17;;;11.90;99.90;;;;;;4979498;28;20065;-66
2023/05/12 01:54:18;;;;;;;0.20;0.20;;;11.90;99.90;;;;;;5005213;28;20049;-66
2023/05/12 01:56:43;;;;;;;0.20;0.20;;;11.90;99.90;;;;;;5004126;28;20042;-66
2023/05/12 01:59:09;;;;;;;0.15;0.15;;;11.90;99.90;;;;;;4995404;28;20494;-66
2023/05/12 02:01:35;;;;;;;0.10;0.10;;;11.90;99.90;;;;;;4999196;28;20129;-66
2023/05/12 02:04:02;;;;;;;0.80;0.80;;;11.90;99.90;;;;;;5008152;28;20038;-66
2023/05/12 02:06:28;;;;;;;0.65;0.55;;;11.90;99.90;;;;;;5008826;28;20085;-66
2023/05/12 02:08:54;;;;;;;1.08;0.47;;;11.90;99.90;;;;;;4996004;28;20069;-66
2023/05/12 02:11:20;;;;;;;0.20;0.20;;;11.90;99.90;;;;;;4978422;28;20077;-66
2023/05/12 02:13:46;;;;;;;0.77;0.77;;;11.90;99.90;;;;;;4995528;28;20059;-66
2023/05/12 02:16:12;;;;;;;1.65;0.57;;;11.80;99.90;;;;;;5007151;28;20158;-66
2023/05/12 02:18:38;;;;;;;0.40;0.40;;;11.90;99.90;;;;;;4995123;28;20078;-66
2023/05/12 02:21:04;;;;;;;0.30;0.30;;;11.90;99.90;;;;;;5003255;28;20038;-66
2023/05/12 02:23:30;;;;;;;0.63;0.63;;;11.90;99.90;;;;;;4999261;28;20042;-66
2023/05/12 02:25:55;;;;;;;0.30;0.30;;;11.90;99.90;;;;;;5011924;28;20054;-66
2023/05/12 02:28:21;;;;;;;0.10;0.10;;;11.90;99.90;;;;;;5008061;28;20382;-66
2023/05/12 02:30:48;;;;;;;0.40;0.40;;;11.90;99.90;;;;;;4980717;28;20406;-66
2023/05/12 02:33:15;;;;;;;0.57;0.55;;;11.80;99.90;;;;;;4991771;28;20096;-66
2023/05/12 02:35:40;;;;;;;0.10;0.10;;;11.90;99.90;;;;;;5009440;28;20038;-66
2023/05/12 02:38:06;;;;;;;1.48;1.38;;;11.80;99.90;;;;;;5000406;28;20109;-66
2023/05/12 02:40:32;;;;;;;0.38;0.38;;;11.90;99.90;;;;;;5008182;28;20047;-66
2023/05/12 02:42:57;;;;;;;0.35;0.35;;;11.90;99.90;;;;;;5008488;28;20121;-66
2023/05/12 02:45:23;;;;;;;0.00;0.00;;;11.90;99.90;;;;;;5005947;28;20053;-66
2023/05/12 02:47:48;;;;;;;3.95;0.95;;;11.90;99.90;;;;;;5007653;28;21046;-66
2023/05/12 02:50:15;;;;;;;0.43;0.43;;;11.90;99.90;;;;;;4984206;28;20042;-66
2023/05/12 02:52:40;;;;;;;0.15;0.15;;;12.00;99.90;;;;;;5006903;28;20137;-66
2023/05/12 02:55:06;;;;;;;0.17;0.17;;;11.90;99.90;;;;;;4994876;28;20133;-66
2023/05/12 02:57:32;;;;;;;5.05;1.85;;;12.00;99.90;;;;;;5005741;28;20068;-66
2023/05/12 02:59:58;;;;;;;0.28;0.28;;;12.00;99.90;;;;;;5002371;28;20042;-66
2023/05/12 03:02:24;;;;;;;1.20;1.13;;;12.00;99.90;;;;;;5002302;28;20045;-66
2023/05/12 03:04:50;;;;;;;0.40;0.40;;;12.00;99.90;;;;;;5010146;28;20132;-66
2023/05/12 03:07:15;;;;;;;1.02;1.00;;;12.00;99.90;;;;;;5016400;28;20058;-66
2023/05/12 03:09:41;;;;;;;0.63;0.63;;;12.00;99.90;;;;;;4994617;28;20046;-66
2023/05/12 03:12:07;;;;;;;0.73;0.73;;;12.00;99.90;;;;;;5002345;28;20468;-66
2023/05/12 03:14:33;;;;;;;1.25;1.17;;;12.10;99.90;;;;;;5009655;28;20116;-66
2023/05/12 03:16:58;;;;;;;0.32;0.32;;;12.00;99.90;;;;;;5010669;28;20045;-66
2023/05/12 03:19:24;;;;;;;2.67;1.80;;;12.10;99.90;;;;;;5003753;28;20470;-66
2023/05/12 03:21:49;;;;;;;0.10;0.10;;;12.10;99.90;;;;;;5004480;28;20401;-66
2023/05/12 03:24:15;;;;;;;0.28;0.28;;;12.10;99.90;;;;;;5014850;28;20045;-66
2023/05/12 03:26:41;;;;;;;6.03;1.85;;;12.10;99.90;;;;;;5011664;28;20054;-66
2023/05/12 03:29:07;;;;;;;0.98;0.98;;;12.10;99.90;;;;;;5003292;28;20047;-66
2023/05/12 03:31:33;;;;;;;5.78;1.13;;;12.10;99.90;;;;;;5010975;28;20078;-66
2023/05/12 03:33:58;;;;;;;0.40;0.40;;;12.10;99.90;;;;;;4985998;28;20077;-67
2023/05/12 03:36:24;;;;;;;0.80;0.80;;;12.10;99.90;;;;;;4989581;28;20545;-66
2023/05/12 03:38:50;;;;;;;1.40;1.08;;;12.20;99.90;;;;;;4998155;28;20440;-66
2023/05/12 03:41:16;;;;;;;7.07;1.35;;;12.10;99.90;;;;;;5011158;28;20514;-66
2023/05/12 03:43:41;;;;;;;0.43;0.43;;;12.20;99.90;;;;;;4998428;28;20490;-66
2023/05/12 03:46:07;;;;;;;0.63;0.55;;;12.10;99.90;;;;;;5005678;28;20042;-67
2023/05/12 03:48:33;;;;;;;0.20;0.20;;;12.20;99.90;;;;;;4989636;28;20442;-66
2023/05/12 03:50:58;;;;;;;1.88;1.77;;;12.20;99.90;;;;;;5001281;28;20452;-66
2023/05/12 03:53:24;;;;;;;1.10;1.02;;;12.20;99.90;;;;;;4986505;28;20050;-66
2023/05/12 03:55:50;;;;;;;0.30;0.30;;;12.20;99.90;;;;;;5010989;28;20379;-66
2023/05/12 03:58:15;;;;;;;6.22;1.27;;;12.30;99.90;;;;;;4992572;28;20054;-66
2023/05/12 04:00:41;;;;;;;2.60;1.05;;;12.30;99.90;;;;;;5003578;28;20069;-66
2023/05/12 04:03:07;;;;;;;2.75;1.73;;;12.30;99.90;;;;;;5013327;28;20041;-67
2023/05/12 04:05:32;;;;;;;0.52;0.52;;;12.30;99.90;;;;;;5008257;28;20050;-67
2023/05/12 04:07:58;;;;;;;0.88;0.85;;;12.30;99.90;;;;;;5001788;28;20027;-66
2023/05/12 04:10:23;;;;;;;0.85;0.85;;;12.30;99.90;;;;;;4993448;28;20132;-67
2023/05/12 04:12:51;;;;;;;2.22;2.13;;;12.30;99.90;;;;;;5005016;28;20049;-67
2023/05/12 04:15:16;;;;;;;0.32;0.32;;;12.30;99.90;;;;;;5010608;28;20492;-66
2023/05/12 04:17:42;;;;;;;2.22;1.33;;;12.30;99.90;;;;;;5019155;28;20117;-66
2023/05/12 04:20:08;;;;;;;0.85;0.85;;;12.30;99.90;;;;;;5005561;28;20466;-67
2023/05/12 04:22:34;;;;;;;0.15;0.15;;;12.30;99.90;;;;;;5010988;28;20046;-66
2023/05/12 04:25:00;;;;;;;3.50;0.63;;;12.30;99.90;;;;;;5013857;28;20512;-67
2023/05/12 04:27:25;;;;;;;0.60;0.60;;;12.40;99.90;;;;;;5006675;28;20100;-67
2023/05/12 04:29:51;;;;;;;0.55;0.55;;;12.40;99.90;;;;;;5009211;28;20108;-66
2023/05/12 04:32:17;;;;;;;4.30;1.23;;;12.40;99.90;;;;;;5012323;28;20031;-66
2023/05/12 04:34:42;;;;;;;1.15;1.05;;;12.40;99.90;;;;;;4986338;28;20061;-66
2023/05/12 04:37:08;;;;;;;1.38;0.98;;;12.40;99.90;;;;;;5000884;28;20057;-67
2023/05/12 04:39:34;;;;;;;1.50;1.40;;;12.40;99.90;;;;;;4996931;28;20046;-67
2023/05/12 04:42:01;;;;;;;0.15;0.15;;;12.40;99.90;;;;;;5005808;28;20034;-66
2023/05/12 04:44:26;;;;;;;1.48;1.30;;;12.40;99.90;;;;;;5007675;28;20085;-66
2023/05/12 04:46:55;;;;;;;0.43;0.43;;;12.40;99.90;;;;;;5011474;28;20080;-67
2023/05/12 04:49:21;;;;;;;5.13;1.55;;;12.40;99.90;;;;;;4990589;28;20089;-67
2023/05/12 04:51:46;;;;;;;2.80;1.75;;;12.40;99.90;;;;;;4984379;28;20084;-66
2023/05/12 04:54:12;;;;;;;0.20;0.20;;;12.40;99.90;;;;;;5014556;28;20074;-67
2023/05/12 04:56:38;;;;;;;2.72;1.30;;;12.50;99.90;;;;;;5009175;28;20144;-66
2023/05/12 04:59:03;;;;;;;0.75;0.75;;;12.50;99.90;;;;;;4999759;28;20046;-66
2023/05/12 05:01:29;;;;;;;2.25;1.30;;;12.50;99.90;;;;;;5004019;28;20050;-67
2023/05/12 05:03:55;;;;;;;0.20;0.20;;;12.50;99.90;;;;;;5011928;28;20081;-66
2023/05/12 05:06:20;;;;;;;1.00;0.95;;;12.50;99.90;;;;;;5010220;28;20046;-67
2023/05/12 05:08:46;;;;;;;1.75;1.65;;;12.60;99.90;;;;;;4998038;28;20046;-66
2023/05/12 05:11:11;;;;;;;1.17;1.17;;;12.60;99.90;;;;;;5002538;28;20109;-66
2023/05/12 05:13:37;;;;;;;0.40;0.40;;;12.60;99.90;;;;;;5009503;28;20526;-66
2023/05/12 05:16:02;;;;;;;0.65;0.65;;;12.60;99.90;;;;;;4998087;28;20129;-66
2023/05/12 05:18:28;;;;;;;2.05;1.88;;;12.70;99.90;;;;;;5005872;28;20054;-66
2023/05/12 05:20:54;;;;;;;0.68;0.68;;;12.70;99.90;;;;;;5001648;28;20080;-66
2023/05/12 05:23:20;;;;;;;4.68;1.48;;;12.70;99.90;;;;;;5006709;28;20424;-66
2023/05/12 05:25:46;;;;;;;0.75;0.75;;;12.80;99.90;;;;;;5012753;28;20069;-66
2023/05/12 05:28:11;;;;;;;0.22;0.22;;;12.80;99.90;;;;;;4984985;28;20516;-67
2023/05/12 05:30:37;;;;;;;5.57;3.90;;;12.90;99.90;;;;;;4997170;28;20043;-66
2023/05/12 05:33:03;;;;;;;0.35;0.35;;;12.90;99.90;;;;;;4990410;28;20096;-66
2023/05/12 05:35:30;;;;;;;0.95;0.95;;;12.90;99.90;;;;;;5003141;28;20034;-66
2023/05/12 05:37:55;;;;;;;4.15;1.85;;;12.90;99.90;;;;;;4999779;28;20046;-66
2023/05/12 05:40:22;;;;;;;3.20;0.52;;;12.90;99.90;;;;;;4986164;28;20050;-66
2023/05/12 05:42:47;;;;;;;3.38;1.45;;;12.90;99.90;;;;;;5009410;28;20508;-66
2023/05/12 05:45:13;;;;;;;1.17;1.08;;;13.00;99.90;;;;;;5011058;28;20050;-66
2023/05/12 05:47:39;;;;;;;0.57;0.57;;;13.10;99.90;;;;;;5000037;28;20559;-66
2023/05/12 05:50:05;;;;;;;0.28;0.28;;;13.10;99.90;;;;;;5010108;28;20041;-67
2023/05/12 05:52:31;;;;;;;2.30;2.05;;;13.10;99.90;;;;;;5004297;28;20041;-66
2023/05/12 05:54:56;;;;;;;0.10;0.10;;;13.10;99.90;;;;;;5005438;28;20532;-67
2023/05/12 05:57:22;;;;;;;0.73;0.73;;;13.20;99.90;;;;;;4985836;28;20050;-67
2023/05/12 05:59:47;;;;;;;3.10;1.80;;;13.20;99.90;;;;;;4995501;28;20052;-67
2023/05/12 06:02:14;;;;;;;0.60;0.60;;;13.30;99.90;;;;;;5006282;28;20072;-66
2023/05/12 06:04:39;;;;;;;1.15;1.05;;;13.30;99.90;;;;;;5008678;28;20132;-66
2023/05/12 06:07:05;;;;;;;2.55;1.85;;;13.30;99.90;;;;;;5011004;28;20072;-66
2023/05/12 06:09:31;;;;;;;0.82;0.82;;;13.30;99.90;;;;;;5002503;28;20042;-67
2023/05/12 06:11:56;;;;;;;1.00;0.77;;;13.40;99.90;;;;;;5007687;28;20073;-66
2023/05/12 06:14:22;;;;;;;1.95;1.10;;;13.50;99.90;;;;;;5020376;28;20042;-66
2023/05/12 06:16:48;;;;;;;1.70;0.30;;;13.50;99.90;;;;;;5011747;28;20049;-66
2023/05/12 06:19:14;;;;;;;0.70;0.70;;;13.60;99.90;;;;;;5003801;28;20042;-67
2023/05/12 06:21:40;;;;;;;0.35;0.35;;;13.60;99.90;;;;;;5005364;28;20069;-67
2023/05/12 06:24:05;;;;;;;0.30;0.30;;;13.70;99.90;;;;;;5015744;28;20134;-67
2023/05/12 06:26:31;;;;;;;6.22;1.63;;;13.70;99.90;;;;;;4989136;28;20043;-67
2023/05/12 06:28:57;;;;;;;0.10;0.10;;;13.80;99.90;;;;;;4996565;28;20482;-67
2023/05/12 06:31:22;;;;;;;3.88;1.85;;;13.80;99.90;;;;;;5018327;28;20042;-67
2023/05/12 06:33:48;;;;;;;0.10;0.10;;;13.80;99.90;;;;;;5003721;28;20524;-67
2023/05/12 06:36:14;;;;;;;0.20;0.20;;;13.90;99.90;;;;;;5015810;28;20046;-67
2023/05/12 06:38:39;;;;;;;1.80;1.05;;;13.90;99.90;;;;;;5007073;28;20133;-67
2023/05/12 06:41:05;;;;;;;1.17;0.98;;;13.90;99.90;;;;;;5006705;28;20038;-67
2023/05/12 06:43:31;;;;;;;1.35;1.30;;;13.90;99.90;;;;;;4991641;28;21832;-67
2023/05/12 06:45:56;;;;;;;1.50;1.40;;;13.90;99.90;;;;;;5009410;28;20049;-67
2023/05/12 06:48:23;;;;;;;0.57;0.57;;;14.00;99.90;;;;;;5000707;28;20547;-67
2023/05/12 06:50:48;;;;;;;0.38;0.38;;;14.00;99.90;;;;;;5006451;28;20513;-66
2023/05/12 06:53:14;;;;;;;0.40;0.40;;;14.10;99.90;;;;;;5010452;28;20042;-67
2023/05/12 06:55:42;;;;;;;0.20;0.20;;;14.10;99.90;;;;;;5002017;28;20093;-67
2023/05/12 06:58:07;;;;;;;0.77;0.77;;;14.20;99.90;;;;;;5014340;28;20509;-67
2023/05/12 07:00:33;;;;;;;0.20;0.20;;;14.20;99.90;;;;;;5003222;28;20050;-67
2023/05/12 07:02:59;;;;;;;0.10;0.10;;;14.20;99.90;;;;;;5007162;28;20042;-67
2023/05/12 07:05:24;;;;;;;0.98;0.75;;;14.30;99.90;;;;;;5013208;28;20061;-67
2023/05/12 07:07:50;;;;;;;0.10;0.10;;;14.30;99.90;;;;;;5003675;28;20038;-67
2023/05/12 07:10:15;;;;;;;0.10;0.10;;;14.30;99.90;;;;;;4982342;28;20560;-67
2023/05/12 07:12:41;;;;;;;1.23;1.00;;;14.40;99.90;;;;;;4999272;28;20093;-67
2023/05/12 07:15:07;;;;;;;0.30;0.30;;;14.40;99.90;;;;;;5005192;28;20042;-67
2023/05/12 07:17:33;;;;;;;0.20;0.20;;;14.50;99.90;;;;;;5012781;28;20440;-67
2023/05/12 07:19:58;;;;;;;0.10;0.10;;;14.50;99.90;;;;;;5009696;28;20064;-67
2023/05/12 07:22:24;;;;;;;0.55;0.55;;;14.60;99.90;;;;;;5002929;28;20111;-67
2023/05/12 07:24:50;;;;;;;0.28;0.17;;;14.70;99.90;;;;;;5013574;28;20045;-67
2023/05/12 07:27:16;;;;;;;0.30;0.30;;;14.80;99.90;;;;;;5000824;28;20533;-67
2023/05/12 07:29:41;;;;;;;0.25;0.25;;;14.80;99.90;;;;;;5014451;28;20054;-67
2023/05/12 07:32:07;;;;;;;0.75;0.75;;;14.90;99.90;;;;;;4988071;28;20046;-67
2023/05/12 07:34:33;;;;;;;0.25;0.25;;;14.90;99.90;;;;;;5009793;28;20052;-67
2023/05/12 07:37:01;;;;;;;0.85;0.85;;;14.90;99.90;;;;;;5002197;28;20108;-68
2023/05/12 07:39:27;;;;;;;0.52;0.52;;;15.00;99.90;;;;;;5006516;28;20046;-67
2023/05/12 07:41:54;;;;;;;0.35;0.35;;;15.00;99.90;;;;;;5007574;28;20039;-67
2023/05/12 07:44:19;;;;;;;0.45;0.45;;;15.00;99.90;;;;;;4991556;28;20390;-68
2023/05/12 07:46:45;;;;;;;0.28;0.28;;;15.10;99.90;;;;;;4999947;28;20046;-67
2023/05/12 07:49:11;;;;;;;0.30;0.30;;;15.10;99.90;;;;;;5003537;28;20038;-68
2023/05/12 07:51:38;;;;;;;0.10;0.10;;;15.20;99.90;;;;;;4982403;28;20045;-68
2023/05/12 07:54:03;;;;;;;1.80;0.93;;;15.30;99.90;;;;;;4995474;28;20057;-68
2023/05/12 07:56:29;;;;;;;0.20;0.20;;;15.30;99.90;;;;;;5004820;28;20049;-68
2023/05/12 07:58:55;;;;;;;0.40;0.40;;;15.30;99.90;;;;;;5001221;28;20394;-67
2023/05/12 08:01:21;;;;;;;0.55;0.55;;;15.40;99.90;;;;;;5011300;28;20100;-68
2023/05/12 08:03:47;;;;;;;0.57;0.57;;;15.50;99.90;;;;;;4987258;28;20054;-68
2023/05/12 08:06:12;;;;;;;0.68;0.68;;;15.50;99.90;;;;;;5002213;28;20041;-68
2023/05/12 08:08:38;;;;;;;4.75;1.80;;;15.50;99.90;;;;;;4988360;28;20072;-67
2023/05/12 08:11:04;;;;;;;1.08;1.00;;;15.50;99.90;;;;;;4984758;28;20073;-68
2023/05/12 08:13:29;;;;;;;0.13;0.13;;;15.60;99.90;;;;;;5009237;28;20482;-68
2023/05/12 08:15:55;;;;;;;1.00;0.63;;;15.70;99.90;;;;;;5000304;28;20124;-68
2023/05/12 08:18:20;;;;;;;0.15;0.15;;;15.70;99.90;;;;;;4984070;28;20057;-68
2023/05/12 08:20:49;;;;;;;0.63;0.63;;;15.70;99.90;;;;;;5005670;28;20054;-68
2023/05/12 08:23:16;;;;;;;0.20;0.20;;;15.80;99.90;;;;;;5008242;28;20046;-67
2023/05/12 08:25:43;;;;;;;1.10;0.90;;;15.80;99.90;;;;;;4987332;28;20089;-68
2023/05/12 08:28:10;;;;;;;0.40;0.40;;;15.80;99.90;;;;;;5009742;28;20153;-68
2023/05/12 08:30:36;;;;;;;0.45;0.45;;;15.90;99.90;;;;;;5015525;28;20038;-68
2023/05/12 08:33:03;;;;;;;1.95;0.55;;;15.90;99.90;;;;;;4999642;28;20042;-67
2023/05/12 08:35:28;;;;;;;0.70;0.65;;;15.90;99.90;;;;;;5003611;28;20041;-68
2023/05/12 08:37:55;;;;;;;0.57;0.40;;;16.00;99.90;;;;;;5002419;28;20045;-68
2023/05/12 08:40:22;;;;;;;0.35;0.35;;;16.00;99.90;;;;;;5001595;28;20049;-68
2023/05/12 08:42:56;;;;;;;1.80;1.70;;;16.10;99.90;;;;;;5010112;28;20045;-68
2023/05/12 08:45:22;;;;;;;0.20;0.20;;;16.20;99.90;;;;;;5000316;28;20057;-68
2023/05/12 08:47:50;;;;;;;0.35;0.35;;;16.30;99.90;;;;;;5008500;28;20040;-68
2023/05/12 08:50:20;;;;;;;5.15;1.20;;;16.50;99.90;;;;;;4997535;28;20508;-68
2023/05/12 08:52:45;;;;;;;0.15;0.15;;;16.60;99.90;;;;;;5007795;28;20553;-67
2023/05/12 08:55:12;;;;;;;0.32;0.32;;;16.70;99.90;;;;;;5001015;28;20121;-68
2023/05/12 08:57:39;;;;;;;1.05;1.00;;;16.90;99.90;;;;;;4986189;28;20100;-68
2023/05/12 09:00:07;;;;;;;0.00;0.00;;;17.00;99.90;;;;;;5013110;28;20113;-68
2023/05/12 09:02:35;;;;;;;0.55;0.55;;;17.30;99.90;;;;;;5002921;28;20050;-67
2023/05/12 09:05:01;;;;;;;1.42;1.33;;;17.40;99.90;;;;;;5001989;28;20099;-68
2023/05/12 09:07:26;;;;;;;0.10;0.10;;;17.60;99.90;;;;;;5002633;28;20486;-68
2023/05/12 09:09:59;;;;;;;1.45;0.98;;;17.80;99.90;;;;;;5000888;28;20033;-68
2023/05/12 09:12:30;;;;;;;15.20;1.42;;;18.30;99.90;;;;;;4992091;28;20050;-68
2023/05/12 09:15:03;;;;;;;2.53;1.13;;;18.70;99.90;;;;;;5008571;28;20590;-68
2023/05/12 09:17:28;;;;;;;1.17;0.90;;;18.80;99.90;;;;;;4990739;28;20042;-68
2023/05/12 09:19:54;;;;;;;0.40;0.40;;;18.80;99.90;;;;;;5008183;28;20057;-68
2023/05/12 09:22:32;;;;;;;0.52;0.43;;;18.80;99.90;;;;;;5007641;28;20354;-68
2023/05/12 09:24:58;;;;;;;0.10;0.10;;;18.80;99.90;;;;;;5000682;28;20043;-68
2023/05/12 09:27:27;;;;;;;1.15;1.08;;;18.80;99.90;;;;;;5007826;28;20830;-68
2023/05/12 09:29:54;;;;;;;0.63;0.63;;;18.90;99.90;;;;;;5003298;28;20508;-68
2023/05/12 09:32:34;;;;;;;3.45;0.90;;;19.00;99.90;;;;;;5000767;28;20129;-68
2023/05/12 09:35:09;;;;;;;0.40;0.40;;;19.10;99.90;;;;;;5011571;28;20052;-68
2023/05/12 09:37:36;;;;;;;0.40;0.40;;;19.30;99.90;;;;;;4999276;28;20034;-68
2023/05/12 09:40:03;;;;;;;2.30;0.73;;;19.40;99.90;;;;;;4999682;28;20045;-68
2023/05/12 09:42:31;;;;;;;0.28;0.28;;;19.60;99.90;;;;;;5006270;28;20078;-67
2023/05/12 09:45:03;;;;;;;0.30;0.22;;;19.90;99.90;;;;;;4996068;28;20478;-68
2023/05/12 09:47:36;;;;;;;1.27;1.17;;;19.90;99.90;;;;;;5008140;28;20056;-68
2023/05/12 09:50:03;;;;;;;0.75;0.75;;;19.90;99.90;;;;;;5001774;28;20169;-68
2023/05/12 09:52:31;;;;;;;1.40;1.27;;;19.90;99.90;;;;;;4997728;28;20081;-68
2023/05/12 09:55:10;;;;;;;0.20;0.20;;;20.10;99.90;;;;;;4998478;28;20124;-68
2023/05/12 09:57:40;;;;;;;0.73;0.73;;;20.40;99.90;;;;;;5004469;28;20050;-67
2023/05/12 10:00:09;;;;;;;1.50;0.93;;;20.70;99.90;;;;;;5005112;28;20045;-68
2023/05/12 10:02:39;;;;;;;1.73;0.75;;;21.00;99.90;;;;;;5001118;28;20096;-68
2023/05/12 10:05:07;;;;;;;0.10;0.10;;;21.40;99.90;;;;;;4998910;28;20118;-68
2023/05/12 10:07:33;;;;;;;0.20;0.20;;;21.70;99.90;;;;;;4986295;28;20042;-68
2023/05/12 10:10:03;;;;;;;0.22;0.22;;;22.10;99.90;;;;;;4995381;28;20037;-68
2023/05/12 10:12:28;;;;;;;0.73;0.73;;;21.80;99.90;;;;;;5002924;28;20041;-68
2023/05/12 10:14:55;;;;;;;0.52;0.47;;;22.00;99.90;;;;;;4998028;28;20508;-67
2023/05/12 10:17:21;;;;;;;2.05;0.93;;;22.00;99.90;;;;;;5003797;28;20438;-67
2023/05/12 10:19:48;;;;;;;0.32;0.32;;;22.10;99.90;;;;;;4998296;28;20053;-68
2023/05/12 10:22:15;;;;;;;0.28;0.13;;;22.20;99.90;;;;;;5003145;28;20516;-67
2023/05/12 10:24:41;;;;;;;2.08;1.88;;;22.50;99.90;;;;;;4994606;28;20479;-67
2023/05/12 10:27:07;;;;;;;0.93;0.80;;;22.40;99.90;;;;;;5003730;28;20068;-67
2023/05/12 10:29:34;;;;;;;0.00;0.00;;;22.40;99.90;;;;;;4998751;28;20379;-67
2023/05/12 10:32:00;;;;;;;0.20;0.20;;;22.30;99.90;;;;;;4981718;28;20042;-67
2023/05/12 10:34:36;;;;;;;1.80;0.68;;;22.30;99.90;;;;;;5007645;28;20159;-67
2023/05/12 10:37:09;;;;;;;0.70;0.47;;;22.10;99.90;;;;;;5002308;28;20509;-68
2023/05/12 10:39:36;;;;;;;0.80;0.80;;;22.10;99.90;;;;;;5005862;28;20058;-67
2023/05/12 10:42:06;;;;;;;0.60;0.60;;;22.10;99.90;;;;;;5008704;28;20485;-67
2023/05/12 10:44:31;;;;;;;0.75;0.65;;;22.20;99.90;;;;;;4982591;28;20085;-67
2023/05/12 10:47:00;;;;;;;1.48;0.47;;;22.30;99.90;;;;;;5001851;28;20453;-67
2023/05/12 10:49:39;;;;;;;0.63;0.55;;;22.40;99.90;;;;;;5004732;28;20088;-67
2023/05/12 10:52:06;;;;;;;0.40;0.30;;;22.50;99.90;;;;;;5010625;28;20045;-67
2023/05/12 10:54:39;;;;;;;0.50;0.50;;;22.50;99.90;;;;;;5004260;28;20545;-68
2023/05/12 10:57:12;;;;;;;0.15;0.08;;;22.60;99.90;;;;;;5004434;28;20034;-67
2023/05/12 10:59:50;;;;;;;0.52;0.30;;;22.80;99.90;;;;;;5011470;28;20045;-67
2023/05/12 11:02:18;;;;;;;0.40;0.40;;;23.00;99.90;;;;;;4995342;28;20082;-67
2023/05/12 11:04:49;;;;;;;0.20;0.20;;;23.10;99.90;;;;;;5002019;28;20395;-67
2023/05/12 11:07:21;;;;;;;1.85;0.70;;;22.90;99.90;;;;;;5008192;28;20053;-67
2023/05/12 11:09:47;;;;;;;0.60;0.60;;;22.80;99.90;;;;;;4984743;28;20058;-67
2023/05/12 11:12:13;;;;;;;0.47;0.47;;;23.00;99.90;;;;;;5011481;28;20398;-67
2023/05/12 11:14:40;;;;;;;1.35;1.25;;;22.70;99.90;;;;;;5000917;28;20038;-67
2023/05/12 11:17:08;;;;;;;0.40;0.40;;;22.70;99.90;;;;;;4989924;28;20046;-67
2023/05/12 11:19:34;;;;;;;0.98;0.93;;;22.80;99.90;;;;;;5002942;28;20050;-67
2023/05/12 11:22:20;;;;;;;0.38;0.38;;;23.10;99.90;;;;;;5010459;28;20474;-67
2023/05/12 11:24:47;;;;;;;1.30;0.75;;;23.40;99.90;;;;;;5015585;28;20493;-67
2023/05/12 11:27:14;;;;;;;0.55;0.55;;;23.50;99.90;;;;;;5003187;28;20581;-66
2023/05/12 11:29:41;;;;;;;0.60;0.35;;;23.50;99.90;;;;;;5012960;28;20050;-66
2023/05/12 11:32:09;;;;;;;0.10;0.10;;;23.80;99.90;;;;;;4990042;28;20549;-67
2023/05/12 11:34:35;;;;;;;1.73;1.30;;;23.90;99.90;;;;;;5011743;28;20038;-66
2023/05/12 11:37:03;;;;;;;2.05;1.15;;;24.00;99.90;;;;;;5015563;28;20041;-66
2023/05/12 11:39:32;;;;;;;0.82;0.82;;;23.70;99.90;;;;;;5012857;28;20133;-66
2023/05/12 11:42:03;;;;;;;0.20;0.20;;;23.80;99.90;;;;;;5010929;28;20034;-66
2023/05/12 11:44:29;;;;;;;0.22;0.22;;;23.80;99.90;;;;;;5010480;28;20132;-67
2023/05/12 11:47:09;;;;;;;0.20;0.20;;;23.90;99.90;;;;;;4982944;28;20089;-66
2023/05/12 11:49:46;;;;;;;0.25;0.25;;;24.20;99.90;;;;;;5009428;28;20059;-67
2023/05/12 11:52:13;;;;;;;0.90;0.47;;;24.30;99.90;;;;;;5013177;28;20048;-67
2023/05/12 11:54:38;;;;;;;1.48;0.32;;;24.20;99.90;;;;;;5009959;28;20478;-67
2023/05/12 11:57:04;;;;;;;0.38;0.38;;;24.40;99.90;;;;;;5011574;28;20049;-67
2023/05/12 11:59:32;;;;;;;3.95;0.77;;;24.60;99.90;;;;;;5010497;28;20425;-67
2023/05/12 12:02:00;;;;;;;0.13;0.13;;;24.70;99.90;;;;;;4987221;28;20058;-67
2023/05/12 12:04:37;;;;;;;0.63;0.43;;;24.60;99.90;;;;;;4991039;28;20049;-67
2023/05/12 12:07:04;;;;;;;0.63;0.55;;;24.60;99.90;;;;;;5000804;28;20041;-67
2023/05/12 12:09:32;;;;;;;2.10;0.98;;;24.90;99.90;;;;;;5008396;28;20049;-67
2023/05/12 12:11:59;;;;;;;0.70;0.68;;;25.10;99.90;;;;;;4992526;28;20058;-67
2023/05/12 12:14:24;;;;;;;0.30;0.30;;;25.20;99.90;;;;;;5005255;28;20041;-67
2023/05/12 12:16:50;;;;;;;0.30;0.30;;;25.30;99.90;;;;;;5007871;28;20046;-67
2023/05/12 12:19:15;;;;;;;0.40;0.40;;;25.20;99.90;;;;;;5012114;28;20053;-67
2023/05/12 12:21:41;;;;;;;0.35;0.30;;;25.20;99.90;;;;;;5011425;28;20128;-67
2023/05/12 12:24:07;;;;;;;0.15;0.15;;;25.70;99.90;;;;;;5007393;28;20082;-67
2023/05/12 12:26:32;;;;;;;0.77;0.77;;;25.50;99.90;;;;;;4999710;28;20133;-67
2023/05/12 12:28:58;;;;;;;0.55;0.38;;;25.60;99.90;;;;;;5007165;28;20116;-67
2023/05/12 12:31:24;;;;;;;0.40;0.40;;;25.80;99.90;;;;;;5006871;28;20145;-67
2023/05/12 12:33:49;;;;;;;0.57;0.45;;;25.80;99.90;;;;;;4995503;28;20089;-67
2023/05/12 12:36:15;;;;;;;1.35;0.70;;;25.90;99.90;;;;;;4989374;28;20868;-67
2023/05/12 12:38:40;;;;;;;3.70;2.30;;;25.80;99.90;;;;;;5006189;28;20144;-66
2023/05/12 12:41:06;;;;;;;0.03;0.03;;;25.90;99.90;;;;;;5002689;28;20436;-67
2023/05/12 12:43:32;;;;;;;0.75;0.68;;;25.80;99.90;;;;;;5002626;28;20132;-67
2023/05/12 12:45:57;;;;;;;0.30;0.30;;;25.80;99.90;;;;;;5000938;28;20048;-67